CYVM/YVM METAR and TAF weather

Enter ICAO airport designator
Station Type Date Time Source
CYVM METAR 2020/08/11 18:00 UTC NOAA

CYVM 111800Z 03007KT 010V070 15SM BKN011 BKN014 OVC033 05/03 A2941 RMK ST5SC2SC1 SLP960


Station Type Date Time Source
CYVM Decoded METAR 2020/08/11 18:00 UTC NOAA

Broughton Island Airport, Canada (CYVM) 67-33N 064-02W
Aug 11, 2020 - 02:00 PM EDT / 2020.08.11 1800 UTC
Wind: from the NNE (030 degrees) at 8 MPH (7 KT) (direction variable):0
Visibility: 15 mile(s):0
Sky conditions: overcast
Temperature: 41 F (5 C)
Dew Point: 37 F (3 C)
Relative Humidity: 86%
Pressure (altimeter): 29.41 in. Hg (995 hPa)
ob: CYVM 111800Z 03007KT 010V070 15SM BKN011 BKN014 OVC033 05/03 A2941 RMK ST5SC2SC1 SLP960
cycle: 18

Station Type Date Time Source
CYVM TAF 2020/08/11 19:42 UTC NOAA

TAF CYVM 111838Z 1119/1207 03008KT P6SM SCT012 BKN030
TEMPO 1119/1203 5SM -SHRA BR BKN012 OVC030 PROB30 1119/1203 BKN008
FM120300 02010KT P6SM SCT008 OVC030
TEMPO 1203/1207 2SM -SHSNRA BR BKN008
RMK NXT FCST BY 120100Z

Example: see airport list